Time;durP1;ratioP1;P1;durP2;ratioP2;P2;SDS_P1;SDS_P2;PMS_P1;PMS_P2;Temp;Humidity;BMP_temperature;BMP_pressure;BME280_temperature;BME280_humidity;BME280_pressure;Samples;Min_cycle;Max_cycle;Signal;HPM_P1;HPM_P2
2024/01/29 00:02:16;;;;;;;;;;;28.40;99.90;;;;;;5094185;28;19912;-68
2024/01/29 00:04:42;;;;;;;;;;;28.50;99.90;;;;;;5094306;28;19916;-68
2024/01/29 00:07:09;;;;;;;;;;;28.60;99.90;;;;;;5094278;28;20383;-70
2024/01/29 00:09:36;;;;;;;;;;;28.40;99.90;;;;;;5094361;28;19904;-68
2024/01/29 00:12:02;;;;;;;;;;;28.40;99.90;;;;;;5093885;28;20364;-68
2024/01/29 00:14:29;;;;;;;;;;;28.50;99.90;;;;;;5112580;28;20275;-70
2024/01/29 00:16:55;;;;;;;;;;;28.50;99.90;;;;;;5113893;28;20021;-68
2024/01/29 00:19:22;;;;;;;;;;;28.50;99.90;;;;;;5114126;28;20416;-65
2024/01/29 00:21:49;;;;;;;;;;;28.60;99.90;;;;;;5113619;28;19919;-66
2024/01/29 00:24:15;;;;;;;;;;;28.60;99.90;;;;;;5114045;28;19908;-71
2024/01/29 00:26:42;;;;;;;;;;;28.60;99.90;;;;;;5113968;28;19991;-68
2024/01/29 00:29:09;;;;;;;;;;;28.70;99.90;;;;;;5095527;28;19908;-68
2024/01/29 00:31:36;;;;;;;;;;;28.80;99.90;;;;;;5114013;28;20360;-69
2024/01/29 00:34:02;;;;;;;;;;;28.80;99.90;;;;;;5095738;28;19908;-69
2024/01/29 00:36:29;;;;;;;;;;;28.80;99.90;;;;;;5105116;28;20280;-69
2024/01/29 00:38:56;;;;;;;;;;;28.90;99.90;;;;;;5093508;28;19938;-68
2024/01/29 00:41:22;;;;;;;;;;;28.90;99.90;;;;;;5093550;28;19966;-70
2024/01/29 00:43:49;;;;;;;;;;;29.00;99.90;;;;;;5093672;28;20622;-69
2024/01/29 00:46:16;;;;;;;;;;;29.10;99.90;;;;;;5098173;28;20370;-68
2024/01/29 00:48:42;;;;;;;;;;;29.30;99.90;;;;;;5113312;28;19923;-69
2024/01/29 00:51:09;;;;;;;;;;;29.40;99.90;;;;;;5110247;28;19919;-67
2024/01/29 00:53:36;;;;;;;;;;;29.30;99.90;;;;;;5113234;28;19908;-67
2024/01/29 00:56:02;;;;;;;;;;;29.30;99.90;;;;;;5112996;28;19920;-66
2024/01/29 00:58:29;;;;;;;;;;;29.40;99.90;;;;;;5113147;28;20350;-66
2024/01/29 01:00:59;;;;;;;;;;;29.50;99.90;;;;;;5112272;28;20295;-69
2024/01/29 01:03:26;;;;;;;;;;;29.60;99.90;;;;;;5093001;28;19911;-69
2024/01/29 01:05:53;;;;;;;;;;;29.80;99.90;;;;;;5107934;28;19930;-66
2024/01/29 01:08:19;;;;;;;;;;;29.90;99.90;;;;;;5112870;28;19908;-68
2024/01/29 01:10:46;;;;;;;;;;;29.90;99.90;;;;;;5112858;28;19908;-66
2024/01/29 01:13:13;;;;;;;;;;;30.00;99.90;;;;;;5110186;28;19915;-68
2024/01/29 01:15:39;;;;;;;;;;;30.00;99.90;;;;;;5112635;28;20283;-68
2024/01/29 01:18:06;;;;;;;;;;;30.10;99.90;;;;;;5112569;28;19907;-67
2024/01/29 01:20:34;;;;;;;;;;;30.00;99.90;;;;;;5106456;28;19944;-70
2024/01/29 01:23:01;;;;;;;;;;;30.00;99.90;;;;;;5111082;28;19907;-70
2024/01/29 01:25:31;;;;;;;;;;;30.20;99.90;;;;;;5110685;28;19937;-70
2024/01/29 01:27:57;;;;;;;;;;;30.30;99.90;;;;;;5109579;28;19934;-68
2024/01/29 01:30:24;;;;;;;;;;;30.30;99.90;;;;;;5112074;28;19912;-68
2024/01/29 01:32:50;;;;;;;;;;;30.30;99.90;;;;;;5112584;28;19920;-68
2024/01/29 01:35:17;;;;;;;;;;;30.30;99.90;;;;;;5110846;28;19916;-66
2024/01/29 01:37:44;;;;;;;;;;;30.50;99.90;;;;;;5112118;28;19908;-67
2024/01/29 01:40:11;;;;;;;;;;;30.50;99.90;;;;;;5112333;28;19923;-71
2024/01/29 01:42:41;;;;;;;;;;;30.70;99.90;;;;;;5112307;28;20375;-67
2024/01/29 01:45:08;;;;;;;;;;;30.90;99.90;;;;;;5112388;28;19923;-68
2024/01/29 01:47:36;;;;;;;;;;;31.20;99.90;;;;;;5111740;28;20316;-68
2024/01/29 01:50:03;;;;;;;;;;;31.00;99.90;;;;;;5112077;28;19919;-68
2024/01/29 01:52:31;;;;;;;;;;;30.90;99.90;;;;;;5112369;28;20420;-67
2024/01/29 01:54:59;;;;;;;;;;;31.00;99.90;;;;;;5112071;28;19942;-70
2024/01/29 01:57:28;;;;;;;;;;;31.00;99.90;;;;;;5112099;28;19912;-69
2024/01/29 01:59:56;;;;;;;;;;;31.20;99.90;;;;;;5111969;28;19935;-68
2024/01/29 02:02:22;;;;;;;;;;;31.50;99.90;;;;;;5112365;28;19908;-67
2024/01/29 02:04:49;;;;;;;;;;;31.60;99.90;;;;;;5109553;28;19946;-67
2024/01/29 02:07:16;;;;;;;;;;;31.60;99.90;;;;;;5110825;28;19911;-67
2024/01/29 02:09:43;;;;;;;;;;;31.40;99.90;;;;;;5112060;28;20360;-71
2024/01/29 02:12:10;;;;;;;;;;;31.50;99.90;;;;;;5112278;28;19915;-68
2024/01/29 02:14:36;;;;;;;;;;;31.60;99.90;;;;;;5112068;28;19903;-68
2024/01/29 02:17:03;;;;;;;;;;;31.70;99.90;;;;;;5112156;28;19912;-70
2024/01/29 02:19:30;;;;;;;;;;;31.90;99.90;;;;;;5111839;28;20006;-69
2024/01/29 02:21:56;;;;;;;;;;;32.00;99.90;;;;;;5111851;28;19955;-67
2024/01/29 02:24:23;;;;;;;;;;;32.10;99.90;;;;;;5112124;28;20525;-66
2024/01/29 02:26:50;;;;;;;;;;;32.00;99.90;;;;;;5111931;28;19912;-67
2024/01/29 02:29:16;;;;;;;;;;;32.10;99.90;;;;;;5111964;28;19908;-69
2024/01/29 02:31:43;;;;;;;;;;;32.10;99.90;;;;;;5111850;28;19908;-67
2024/01/29 02:34:10;;;;;;;;;;;32.00;99.90;;;;;;5111877;28;19952;-70
2024/01/29 02:36:36;;;;;;;;;;;31.90;99.90;;;;;;5111569;28;20363;-70
2024/01/29 02:39:03;;;;;;;;;;;32.20;99.90;;;;;;5111329;28;19923;-70
2024/01/29 02:41:30;;;;;;;;;;;32.40;99.90;;;;;;5111621;28;19985;-70
2024/01/29 02:43:57;;;;;;;;;;;32.60;99.90;;;;;;5112109;28;19915;-68
2024/01/29 02:46:23;;;;;;;;;;;32.50;99.90;;;;;;5114746;28;19950;-67
2024/01/29 02:48:50;;;;;;;;;;;32.50;99.90;;;;;;5115645;28;19968;-69
2024/01/29 02:51:17;;;;;;;;;;;32.30;99.90;;;;;;5115612;28;19908;-67
2024/01/29 02:53:43;;;;;;;;;;;32.40;99.90;;;;;;5115576;28;19990;-68
2024/01/29 02:56:10;;;;;;;;;;;32.70;99.90;;;;;;5114937;28;19920;-70
2024/01/29 02:58:37;;;;;;;;;;;32.90;99.90;;;;;;5113052;28;19919;-68
2024/01/29 03:01:03;;;;;;;;;;;32.90;99.90;;;;;;5114681;28;19922;-68
2024/01/29 03:03:30;;;;;;;;;;;33.00;99.90;;;;;;5115748;28;19941;-69
2024/01/29 03:05:57;;;;;;;;;;;33.30;99.90;;;;;;5114384;28;19947;-69
2024/01/29 03:08:23;;;;;;;;;;;33.30;99.90;;;;;;5111891;28;19915;-68
2024/01/29 03:10:50;;;;;;;;;;;33.60;99.50;;;;;;5114832;28;19908;-67
2024/01/29 03:13:16;;;;;;;;;;;33.80;99.00;;;;;;5115106;28;19912;-68
2024/01/29 03:15:44;;;;;;;;;;;34.10;98.90;;;;;;5115126;28;20359;-67
2024/01/29 03:18:11;;;;;;;;;;;34.30;98.20;;;;;;5115030;28;19908;-67
2024/01/29 03:20:38;;;;;;;;;;;34.70;98.30;;;;;;5114898;28;19927;-67
2024/01/29 03:23:04;;;;;;;;;;;34.90;97.90;;;;;;5114981;28;20278;-69
2024/01/29 03:25:31;;;;;;;;;;;35.20;97.30;;;;;;5115418;28;19922;-69
2024/01/29 03:27:58;;;;;;;;;;;35.00;97.40;;;;;;5115190;28;19918;-67
2024/01/29 03:30:24;;;;;;;;;;;35.80;96.40;;;;;;5115300;28;19907;-68
2024/01/29 03:32:54;;;;;;;;;;;36.80;95.80;;;;;;5115006;28;19911;-69
2024/01/29 03:35:21;;;;;;;;;;;37.50;95.20;;;;;;5115061;28;20002;-68
2024/01/29 03:37:47;;;;;;;;;;;38.60;93.80;;;;;;5115111;28;19908;-67
2024/01/29 03:40:14;;;;;;;;;;;39.20;92.00;;;;;;5115077;28;19916;-67
2024/01/29 03:42:41;;;;;;;;;;;39.00;91.80;;;;;;5115140;28;19943;-67
2024/01/29 03:45:08;;;;;;;;;;;39.70;91.00;;;;;;5113678;28;19911;-69
2024/01/29 03:47:34;;;;;;;;;;;39.50;90.40;;;;;;5113939;28;19915;-69
2024/01/29 03:50:02;;;;;;;;;;;39.70;90.20;;;;;;5114576;28;19908;-68
2024/01/29 03:52:28;;;;;;;;;;;40.00;89.90;;;;;;5114560;28;19908;-69
2024/01/29 03:54:55;;;;;;;;;;;39.20;90.10;;;;;;5113998;28;19939;-67
2024/01/29 03:57:21;;;;;;;;;;;39.50;89.80;;;;;;5113331;28;19916;-68
2024/01/29 03:59:48;;;;;;;;;;;39.10;88.80;;;;;;5114313;28;19920;-67
2024/01/29 04:02:15;;;;;;;;;;;39.10;89.40;;;;;;5112005;27;19961;-69
2024/01/29 04:04:43;;;;;;;;;;;39.30;89.80;;;;;;5113436;28;19922;-68
2024/01/29 04:07:10;;;;;;;;;;;39.20;88.10;;;;;;5114001;28;20014;-67
2024/01/29 04:09:36;;;;;;;;;;;39.60;88.20;;;;;;5113632;28;19914;-69
2024/01/29 04:12:03;;;;;;;;;;;40.00;88.60;;;;;;5113915;28;19912;-69
2024/01/29 04:14:30;;;;;;;;;;;40.10;86.90;;;;;;5113616;28;19907;-67
2024/01/29 04:16:57;;;;;;;;;;;40.70;86.40;;;;;;5113469;28;19922;-68
2024/01/29 04:19:23;;;;;;;;;;;41.40;86.00;;;;;;5113382;28;19923;-67
2024/01/29 04:21:50;;;;;;;;;;;40.50;84.40;;;;;;5113641;28;19911;-70
2024/01/29 04:24:17;;;;;;;;;;;39.50;87.20;;;;;;5113646;28;20395;-70
2024/01/29 04:26:43;;;;;;;;;;;39.80;86.50;;;;;;5113684;27;19911;-70
2024/01/29 04:29:10;;;;;;;;;;;39.40;86.70;;;;;;5113497;28;19912;-68
2024/01/29 04:31:37;;;;;;;;;;;39.10;87.60;;;;;;5113186;27;19907;-68
2024/01/29 04:34:03;;;;;;;;;;;39.30;87.00;;;;;;5113776;28;20275;-68
2024/01/29 04:36:30;;;;;;;;;;;39.30;85.90;;;;;;5113662;27;19951;-69
2024/01/29 04:38:57;;;;;;;;;;;38.30;87.90;;;;;;5113038;28;19919;-67
2024/01/29 04:41:23;;;;;;;;;;;38.20;89.30;;;;;;5112727;28;19931;-71
2024/01/29 04:43:50;;;;;;;;;;;38.30;90.00;;;;;;5111916;28;19912;-71
2024/01/29 04:46:17;;;;;;;;;;;39.00;87.60;;;;;;5112942;28;20371;-71
2024/01/29 04:48:43;;;;;;;;;;;40.10;87.40;;;;;;5116205;27;19908;-69
2024/01/29 04:51:10;;;;;;;;;;;40.40;84.60;;;;;;5110598;27;19908;-70
2024/01/29 04:53:38;;;;;;;;;;;40.60;85.60;;;;;;5117118;27;19986;-70
2024/01/29 04:56:05;;;;;;;;;;;41.00;84.20;;;;;;5119965;27;20322;-70
2024/01/29 04:58:32;;;;;;;;;;;40.80;82.90;;;;;;5117405;27;19927;-69
2024/01/29 05:00:59;;;;;;;;;;;39.90;84.30;;;;;;5120851;27;19916;-69
2024/01/29 05:03:26;;;;;;;;;;;39.90;85.50;;;;;;5113839;27;20272;-70
2024/01/29 05:05:52;;;;;;;;;;;40.70;84.40;;;;;;5112143;28;20045;-71
2024/01/29 05:08:19;;;;;;;;;;;41.40;83.60;;;;;;5112448;27;19927;-70
2024/01/29 05:10:46;;;;;;;;;;;41.90;82.10;;;;;;5112352;28;20404;-71
2024/01/29 05:13:13;;;;;;;;;;;41.60;82.10;;;;;;5112491;28;19914;-69
2024/01/29 05:15:39;;;;;;;;;;;41.60;82.40;;;;;;5112368;28;19915;-70
2024/01/29 05:18:06;;;;;;;;;;;40.80;83.10;;;;;;5111999;28;19991;-69
2024/01/29 05:20:33;;;;;;;;;;;40.50;83.20;;;;;;5125986;27;19915;-70
2024/01/29 05:22:59;;;;;;;;;;;40.60;82.10;;;;;;5132886;27;19914;-70
2024/01/29 05:25:26;;;;;;;;;;;41.10;82.40;;;;;;5113943;27;19915;-70
2024/01/29 05:27:53;;;;;;;;;;;40.80;83.10;;;;;;5112526;28;20344;-72
2024/01/29 05:30:20;;;;;;;;;;;41.10;81.60;;;;;;5112995;28;19949;-70
2024/01/29 05:32:46;;;;;;;;;;;40.40;83.30;;;;;;5112589;28;19953;-70
2024/01/29 05:35:13;;;;;;;;;;;40.70;82.60;;;;;;5112545;28;19911;-71
2024/01/29 05:37:40;;;;;;;;;;;41.30;81.80;;;;;;5113692;28;19916;-70
2024/01/29 05:40:09;;;;;;;;;;;41.80;80.70;;;;;;5114020;28;20394;-70
2024/01/29 05:42:35;;;;;;;;;;;41.30;80.80;;;;;;5123824;28;19911;-70
2024/01/29 05:45:02;;;;;;;;;;;40.80;81.80;;;;;;5099767;28;20261;-69
2024/01/29 05:47:29;;;;;;;;;;;40.70;81.90;;;;;;5121270;28;19939;-71
2024/01/29 05:49:56;;;;;;;;;;;41.00;83.00;;;;;;5122592;28;19933;-71
2024/01/29 05:52:22;;;;;;;;;;;40.20;82.20;;;;;;5122128;28;19932;-68
2024/01/29 05:54:49;;;;;;;;;;;40.10;82.40;;;;;;5119296;28;20410;-70
2024/01/29 05:57:18;;;;;;;;;;;39.60;83.80;;;;;;5119013;28;19912;-69
2024/01/29 05:59:45;;;;;;;;;;;39.60;84.10;;;;;;5131503;28;19916;-69
2024/01/29 06:02:12;;;;;;;;;;;39.40;84.20;;;;;;5122038;28;20380;-70
2024/01/29 06:04:39;;;;;;;;;;;39.50;83.50;;;;;;5113518;28;19912;-70
2024/01/29 06:07:06;;;;;;;;;;;39.60;84.20;;;;;;5113355;28;19915;-70
2024/01/29 06:09:33;;;;;;;;;;;39.60;83.00;;;;;;5125207;28;19919;-70
2024/01/29 06:11:59;;;;;;;;;;;38.60;85.80;;;;;;5128996;28;19918;-70
2024/01/29 06:14:26;;;;;;;;;;;38.40;86.70;;;;;;5112564;28;19907;-70
2024/01/29 06:16:56;;;;;;;;;;;38.10;86.30;;;;;;5125977;28;19912;-70
2024/01/29 06:19:22;;;;;;;;;;;37.90;86.10;;;;;;5130851;27;19911;-69
2024/01/29 06:21:49;;;;;;;;;;;37.30;87.90;;;;;;5120366;27;19907;-69
2024/01/29 06:24:16;;;;;;;;;;;37.00;89.20;;;;;;5116334;27;19960;-71
2024/01/29 06:26:42;;;;;;;;;;;37.20;88.40;;;;;;5136459;27;19919;-70
2024/01/29 06:29:09;;;;;;;;;;;36.70;90.40;;;;;;5136703;27;20347;-70
2024/01/29 06:31:39;;;;;;;;;;;36.80;90.10;;;;;;5135982;27;20006;-70
2024/01/29 06:34:06;;;;;;;;;;;36.60;89.60;;;;;;5128976;27;19914;-70
2024/01/29 06:36:33;;;;;;;;;;;36.10;90.60;;;;;;5131038;27;20002;-70
2024/01/29 06:39:00;;;;;;;;;;;36.10;90.50;;;;;;5115378;28;19984;-70
2024/01/29 06:41:27;;;;;;;;;;;35.50;91.40;;;;;;5134488;27;19911;-70
2024/01/29 06:43:54;;;;;;;;;;;34.30;92.40;;;;;;5120365;27;19911;-69
2024/01/29 06:46:21;;;;;;;;;;;33.40;93.70;;;;;;5117550;27;19930;-69
2024/01/29 06:48:48;;;;;;;;;;;33.10;94.70;;;;;;5098770;27;19911;-70
2024/01/29 06:51:17;;;;;;;;;;;32.70;95.10;;;;;;5132008;27;19911;-68
2024/01/29 06:53:44;;;;;;;;;;;32.20;95.40;;;;;;5132519;27;19994;-67
2024/01/29 06:56:11;;;;;;;;;;;32.00;96.60;;;;;;5123209;27;19919;-68
2024/01/29 06:58:37;;;;;;;;;;;32.00;96.30;;;;;;5136021;27;20443;-68
2024/01/29 07:01:04;;;;;;;;;;;31.60;97.30;;;;;;5134427;27;19915;-68
2024/01/29 07:03:31;;;;;;;;;;;31.80;96.80;;;;;;5133553;27;19911;-69
2024/01/29 07:05:58;;;;;;;;;;;31.40;97.40;;;;;;5117378;27;20000;-70
2024/01/29 07:08:25;;;;;;;;;;;31.30;98.30;;;;;;5135920;27;20373;-69
2024/01/29 07:10:51;;;;;;;;;;;31.20;98.20;;;;;;5130597;27;20283;-68
2024/01/29 07:13:18;;;;;;;;;;;31.10;98.70;;;;;;5115079;27;19911;-70
2024/01/29 07:15:45;;;;;;;;;;;30.80;98.90;;;;;;5133491;27;19911;-68
2024/01/29 07:18:11;;;;;;;;;;;30.60;99.50;;;;;;5124147;27;19915;-69
2024/01/29 07:20:39;;;;;;;;;;;30.30;99.90;;;;;;5133958;27;19968;-68
2024/01/29 07:23:07;;;;;;;;;;;30.10;99.90;;;;;;5116731;27;19999;-69
2024/01/29 07:25:40;;;;;;;;;;;29.80;99.90;;;;;;5116465;27;19908;-69
2024/01/29 07:28:07;;;;;;;;;;;29.60;99.90;;;;;;5135616;27;19907;-69
2024/01/29 07:30:34;;;;;;;;;;;29.70;99.90;;;;;;5133295;27;19958;-68
2024/01/29 07:33:02;;;;;;;;;;;30.00;99.90;;;;;;5129790;27;19911;-68
2024/01/29 07:35:28;;;;;;;;;;;30.20;99.90;;;;;;5117209;27;19912;-67
2024/01/29 07:37:55;;;;;;;;;;;30.00;99.90;;;;;;5094231;28;19908;-68
2024/01/29 07:40:22;;;;;;;;;;;29.70;99.90;;;;;;5094751;28;20326;-68
2024/01/29 07:42:49;;;;;;;;;;;29.50;99.90;;;;;;5135593;27;20375;-68
2024/01/29 07:45:16;;;;;;;;;;;29.40;99.90;;;;;;5114469;27;20323;-68
2024/01/29 07:47:42;;;;;;;;;;;29.40;99.90;;;;;;5134161;27;19918;-68
2024/01/29 07:50:09;;;;;;;;;;;29.30;99.90;;;;;;5134609;27;19996;-68
2024/01/29 07:52:36;;;;;;;;;;;29.20;99.90;;;;;;5117105;27;19916;-67
2024/01/29 07:55:03;;;;;;;;;;;29.10;99.90;;;;;;5116477;27;19912;-70
2024/01/29 07:57:29;;;;;;;;;;;29.20;99.90;;;;;;5133584;27;19927;-67
2024/01/29 07:59:57;;;;;;;;;;;29.00;99.90;;;;;;5099671;28;19920;-70
2024/01/29 08:02:23;;;;;;;;;;;28.90;99.90;;;;;;5110405;28;19912;-69
2024/01/29 08:04:50;;;;;;;;;;;28.80;99.90;;;;;;5114992;27;19911;-68
2024/01/29 08:07:17;;;;;;;;;;;28.70;99.90;;;;;;5115161;27;20456;-71
2024/01/29 08:09:45;;;;;;;;;;;28.60;99.90;;;;;;5103188;28;19965;-69
2024/01/29 08:12:11;;;;;;;;;;;28.40;99.90;;;;;;5115914;27;20371;-69
2024/01/29 08:14:39;;;;;;;;;;;28.40;99.90;;;;;;5113412;28;20006;-69
2024/01/29 08:17:05;;;;;;;;;;;28.30;99.90;;;;;;5114024;27;19959;-69
2024/01/29 08:19:32;;;;;;;;;;;28.30;99.90;;;;;;5129945;27;20015;-68
2024/01/29 08:21:59;;;;;;;;;;;28.10;99.90;;;;;;5134097;27;19922;-69
2024/01/29 08:24:25;;;;;;;;;;;28.20;99.90;;;;;;5120659;27;19911;-69
2024/01/29 08:26:52;;;;;;;;;;;28.10;99.90;;;;;;5132146;27;19918;-69
2024/01/29 08:29:20;;;;;;;;;;;28.00;99.90;;;;;;5115157;27;19911;-69
2024/01/29 08:31:46;;;;;;;;;;;27.90;99.90;;;;;;5113269;28;19912;-70
2024/01/29 08:34:13;;;;;;;;;;;28.00;99.90;;;;;;5122796;27;19961;-69
2024/01/29 08:36:40;;;;;;;;;;;27.80;99.90;;;;;;5114903;27;19911;-70
2024/01/29 08:39:06;;;;;;;;;;;27.70;99.90;;;;;;5106561;27;19941;-69
2024/01/29 08:41:33;;;;;;;;;;;27.70;99.90;;;;;;5133730;27;19930;-70
2024/01/29 08:43:59;;;;;;;;;;;27.50;99.90;;;;;;5122184;27;19919;-69
2024/01/29 08:46:26;;;;;;;;;;;27.50;99.90;;;;;;5114394;27;19907;-69
2024/01/29 08:48:53;;;;;;;;;;;27.30;99.90;;;;;;5102954;27;19915;-70
2024/01/29 08:51:19;;;;;;;;;;;27.20;99.90;;;;;;5132999;27;19914;-69
2024/01/29 08:53:46;;;;;;;;;;;27.10;99.90;;;;;;5131790;27;20005;-71
2024/01/29 08:56:12;;;;;;;;;;;27.00;99.90;;;;;;5131618;27;19920;-68
2024/01/29 08:58:39;;;;;;;;;;;27.00;99.90;;;;;;5121927;27;20003;-68
2024/01/29 09:01:06;;;;;;;;;;;27.00;99.90;;;;;;5127748;27;19915;-68
2024/01/29 09:03:32;;;;;;;;;;;27.00;99.90;;;;;;5128730;27;20383;-68
2024/01/29 09:05:59;;;;;;;;;;;26.80;99.90;;;;;;5129791;27;19942;-71
2024/01/29 09:08:27;;;;;;;;;;;26.80;99.90;;;;;;5132928;27;20331;-69
2024/01/29 09:10:54;;;;;;;;;;;26.80;99.90;;;;;;5131461;27;19911;-69
2024/01/29 09:13:21;;;;;;;;;;;26.70;99.90;;;;;;5123380;27;20367;-70
2024/01/29 09:15:47;;;;;;;;;;;26.70;99.90;;;;;;5112975;28;19999;-69
2024/01/29 09:18:14;;;;;;;;;;;26.70;99.90;;;;;;5112205;28;19912;-69
2024/01/29 09:20:41;;;;;;;;;;;26.50;99.90;;;;;;5094012;28;19916;-69
2024/01/29 09:23:08;;;;;;;;;;;26.60;99.90;;;;;;5101083;28;19919;-68
2024/01/29 09:25:34;;;;;;;;;;;26.50;99.90;;;;;;5111955;28;19912;-69
2024/01/29 09:28:01;;;;;;;;;;;26.50;99.90;;;;;;5123865;27;19907;-68
2024/01/29 09:30:27;;;;;;;;;;;26.50;99.90;;;;;;5113027;27;19919;-67
2024/01/29 09:32:55;;;;;;;;;;;26.50;99.90;;;;;;5094501;28;19917;-70
2024/01/29 09:35:22;;;;;;;;;;;26.50;99.90;;;;;;5110956;27;19918;-70
2024/01/29 09:37:49;;;;;;;;;;;26.50;99.90;;;;;;5107863;27;20317;-68
2024/01/29 09:40:15;;;;;;;;;;;26.50;99.90;;;;;;5105225;28;19920;-68
2024/01/29 09:42:45;;;;;;;;;;;26.40;99.90;;;;;;5110490;28;19951;-69
2024/01/29 09:45:11;;;;;;;;;;;26.40;99.90;;;;;;5096600;28;19912;-69
2024/01/29 09:47:38;;;;;;;;;;;26.30;99.90;;;;;;5099824;28;20019;-68
2024/01/29 09:50:07;;;;;;;;;;;26.30;99.90;;;;;;5100318;28;19918;-69
2024/01/29 09:52:37;;;;;;;;;;;26.30;99.90;;;;;;5114077;28;19908;-68
2024/01/29 09:55:05;;;;;;;;;;;26.30;99.90;;;;;;5094723;28;19966;-68
2024/01/29 09:57:32;;;;;;;;;;;26.20;99.90;;;;;;5116892;27;19916;-71
2024/01/29 09:59:59;;;;;;;;;;;26.20;99.90;;;;;;5116623;28;19916;-70
2024/01/29 10:02:25;;;;;;;;;;;26.20;99.90;;;;;;5121893;27;19919;-69
2024/01/29 10:04:52;;;;;;;;;;;26.20;99.90;;;;;;5116956;28;19953;-70
2024/01/29 10:07:19;;;;;;;;;;;26.20;99.90;;;;;;5118065;27;19912;-69
2024/01/29 10:09:45;;;;;;;;;;;26.10;99.90;;;;;;5112641;28;19911;-67
2024/01/29 10:12:22;;;;;;;;;;;26.20;99.90;;;;;;5104441;27;19912;-69
2024/01/29 10:14:49;;;;;;;;;;;26.20;99.90;;;;;;5099382;28;19942;-67
2024/01/29 10:17:15;;;;;;;;;;;26.20;99.90;;;;;;5095790;28;20329;-67
2024/01/29 10:19:44;;;;;;;;;;;26.30;99.90;;;;;;5128664;27;19927;-68
2024/01/29 10:22:14;;;;;;;;;;;26.20;99.90;;;;;;5106683;27;20268;-67
2024/01/29 10:24:41;;;;;;;;;;;26.00;99.90;;;;;;5128365;27;19926;-67
2024/01/29 10:27:08;;;;;;;;;;;26.00;99.90;;;;;;5136188;27;19904;-69
2024/01/29 10:29:50;;;;;;;;;;;26.00;99.90;;;;;;5120871;27;20364;-68
2024/01/29 10:32:17;;;;;;;;;;;26.00;99.90;;;;;;5131224;27;20325;-68
2024/01/29 10:34:44;;;;;;;;;;;26.00;99.90;;;;;;5134584;27;19911;-69
2024/01/29 10:37:11;;;;;;;;;;;25.90;99.90;;;;;;5121956;27;19958;-69
2024/01/29 10:39:39;;;;;;;;;;;26.00;99.90;;;;;;5132310;27;19924;-68
2024/01/29 10:42:08;;;;;;;;;;;25.90;99.90;;;;;;5107075;27;19919;-68
2024/01/29 10:44:37;;;;;;;;;;;26.00;99.90;;;;;;5109189;27;19920;-69
2024/01/29 10:47:09;;;;;;;;;;;26.00;99.90;;;;;;5119495;27;19912;-66
2024/01/29 10:49:36;;;;;;;;;;;26.00;99.90;;;;;;5132347;27;19972;-68
2024/01/29 10:52:03;;;;;;;;;;;26.10;99.90;;;;;;5130516;27;20363;-69
2024/01/29 10:54:31;;;;;;;;;;;26.10;99.90;;;;;;5107449;27;20002;-65
2024/01/29 10:56:58;;;;;;;;;;;26.20;99.90;;;;;;5118147;27;19996;-66
2024/01/29 10:59:26;;;;;;;;;;;26.10;99.90;;;;;;5132577;27;19975;-68
2024/01/29 11:01:55;;;;;;;;;;;26.20;99.90;;;;;;5123995;27;19915;-68
2024/01/29 11:04:22;;;;;;;;;;;26.20;99.90;;;;;;5116713;27;20400;-68
2024/01/29 11:06:48;;;;;;;;;;;26.20;99.90;;;;;;5104784;27;20282;-66
2024/01/29 11:09:17;;;;;;;;;;;26.20;99.90;;;;;;5126655;27;19925;-66
2024/01/29 11:11:46;;;;;;;;;;;26.10;99.90;;;;;;5127772;27;19915;-69
2024/01/29 11:14:13;;;;;;;;;;;26.20;99.90;;;;;;5116092;27;19919;-70
2024/01/29 11:16:40;;;;;;;;;;;26.20;99.90;;;;;;5132881;27;19965;-67
2024/01/29 11:19:07;;;;;;;;;;;26.30;99.90;;;;;;5135735;27;19912;-70
2024/01/29 11:21:33;;;;;;;;;;;26.20;99.90;;;;;;5119525;27;19923;-67
2024/01/29 11:24:00;;;;;;;;;;;26.20;99.90;;;;;;5104266;27;19915;-69
2024/01/29 11:26:28;;;;;;;;;;;26.20;99.90;;;;;;5118978;27;19919;-69
2024/01/29 11:28:55;;;;;;;;;;;26.30;99.90;;;;;;5132189;27;20375;-69
2024/01/29 11:31:22;;;;;;;;;;;26.20;99.90;;;;;;5124124;27;19919;-67
2024/01/29 11:33:49;;;;;;;;;;;26.20;99.90;;;;;;5117335;27;20282;-67
2024/01/29 11:36:16;;;;;;;;;;;26.20;99.90;;;;;;5121772;27;19912;-67
2024/01/29 11:38:43;;;;;;;;;;;26.20;99.90;;;;;;5114960;28;19915;-68
2024/01/29 11:41:10;;;;;;;;;;;26.20;99.90;;;;;;5117607;27;19920;-67
2024/01/29 11:43:36;;;;;;;;;;;26.30;99.90;;;;;;5114468;27;19919;-69
2024/01/29 11:46:06;;;;;;;;;;;26.30;99.90;;;;;;5103717;27;19912;-68
2024/01/29 11:48:32;;;;;;;;;;;26.30;99.90;;;;;;5095218;28;19912;-70
2024/01/29 11:50:59;;;;;;;;;;;26.30;99.90;;;;;;5115202;27;19919;-68
2024/01/29 11:53:26;;;;;;;;;;;26.30;99.90;;;;;;5113479;27;19927;-68
2024/01/29 11:55:53;;;;;;;;;;;26.30;99.90;;;;;;5133421;27;19923;-67
2024/01/29 11:58:21;;;;;;;;;;;26.30;99.90;;;;;;5117447;27;19912;-70
2024/01/29 12:00:49;;;;;;;;;;;26.30;99.90;;;;;;5114064;28;20301;-67
2024/01/29 12:03:17;;;;;;;;;;;26.30;99.90;;;;;;5116936;27;19961;-66
2024/01/29 12:05:45;;;;;;;;;;;26.20;99.90;;;;;;5128790;27;19912;-68
2024/01/29 12:08:16;;;;;;;;;;;26.20;99.90;;;;;;5128899;27;19919;-68
2024/01/29 12:10:44;;;;;;;;;;;26.20;99.90;;;;;;5113958;28;19914;-67
2024/01/29 12:13:11;;;;;;;;;;;26.20;99.90;;;;;;5108633;27;19912;-68
2024/01/29 12:15:38;;;;;;;;;;;26.10;99.90;;;;;;5094418;28;19908;-69
2024/01/29 12:18:09;;;;;;;;;;;26.20;99.90;;;;;;5112500;27;19911;-69
2024/01/29 12:20:38;;;;;;;;;;;26.20;99.90;;;;;;5109425;28;20014;-68
2024/01/29 12:23:05;;;;;;;;;;;26.30;99.90;;;;;;5110767;27;19913;-67
2024/01/29 12:25:32;;;;;;;;;;;26.30;99.90;;;;;;5123985;27;19919;-67
2024/01/29 12:28:03;;;;;;;;;;;26.40;99.90;;;;;;5115076;27;19912;-67
2024/01/29 12:30:30;;;;;;;;;;;26.40;99.90;;;;;;5113939;28;19914;-67
2024/01/29 12:32:57;;;;;;;;;;;26.50;99.90;;;;;;5120061;27;19920;-66
2024/01/29 12:35:25;;;;;;;;;;;26.40;99.90;;;;;;5112802;27;19912;-66
2024/01/29 12:37:52;;;;;;;;;;;26.50;99.90;;;;;;5119418;27;19923;-68
2024/01/29 12:40:19;;;;;;;;;;;26.40;99.90;;;;;;5122568;27;20362;-67
2024/01/29 12:42:45;;;;;;;;;;;26.40;99.90;;;;;;5099637;27;19919;-68
2024/01/29 12:45:18;;;;;;;;;;;26.40;99.90;;;;;;5128721;27;19947;-66
2024/01/29 12:47:45;;;;;;;;;;;26.30;99.90;;;;;;5113776;28;19915;-67
2024/01/29 12:50:15;;;;;;;;;;;26.40;99.90;;;;;;5122066;27;19916;-65
2024/01/29 12:52:42;;;;;;;;;;;26.40;99.90;;;;;;5133825;27;20351;-67
2024/01/29 12:55:08;;;;;;;;;;;26.40;99.90;;;;;;5131853;27;19976;-68
2024/01/29 12:57:35;;;;;;;;;;;26.50;99.90;;;;;;5098822;27;20018;-66
2024/01/29 13:00:03;;;;;;;;;;;26.50;99.90;;;;;;5132426;27;20389;-66
2024/01/29 13:02:29;;;;;;;;;;;26.50;99.90;;;;;;5117747;27;19911;-68
2024/01/29 13:04:56;;;;;;;;;;;26.50;99.90;;;;;;5114592;27;19919;-67
2024/01/29 13:07:23;;;;;;;;;;;26.50;99.90;;;;;;5113324;28;20326;-71
2024/01/29 13:09:49;;;;;;;;;;;26.50;99.90;;;;;;5114101;27;19914;-71
2024/01/29 13:12:16;;;;;;;;;;;26.40;99.90;;;;;;5113928;28;19918;-67
2024/01/29 13:14:45;;;;;;;;;;;26.40;99.90;;;;;;5121121;27;20383;-67
2024/01/29 13:17:11;;;;;;;;;;;26.50;99.90;;;;;;5132277;27;19956;-68
2024/01/29 13:19:38;;;;;;;;;;;26.50;99.90;;;;;;5117395;27;19919;-69
2024/01/29 13:22:05;;;;;;;;;;;26.60;99.90;;;;;;5133978;27;19915;-70
2024/01/29 13:24:32;;;;;;;;;;;26.50;99.90;;;;;;5132199;27;19956;-67
2024/01/29 13:26:58;;;;;;;;;;;26.60;99.90;;;;;;5114754;27;19923;-67
2024/01/29 13:29:25;;;;;;;;;;;26.60;99.90;;;;;;5114620;28;19908;-70
2024/01/29 13:31:51;;;;;;;;;;;26.60;99.90;;;;;;5131924;27;19915;-70
2024/01/29 13:34:20;;;;;;;;;;;26.50;99.90;;;;;;5132131;27;20414;-67
2024/01/29 13:36:48;;;;;;;;;;;26.60;99.90;;;;;;5119888;28;19950;-66
2024/01/29 13:39:17;;;;;;;;;;;26.60;99.90;;;;;;5113213;28;19964;-66
2024/01/29 13:41:46;;;;;;;;;;;26.60;99.90;;;;;;5125578;28;19947;-71
2024/01/29 13:44:13;;;;;;;;;;;26.60;99.90;;;;;;5113105;28;19977;-71
2024/01/29 13:46:40;;;;;;;;;;;26.60;99.90;;;;;;5127039;28;20274;-67
2024/01/29 13:49:06;;;;;;;;;;;26.60;99.90;;;;;;5116340;28;19912;-68
2024/01/29 13:51:33;;;;;;;;;;;26.60;99.90;;;;;;5133679;28;19941;-67
2024/01/29 13:54:00;;;;;;;;;;;26.60;99.90;;;;;;5129598;28;19960;-66
2024/01/29 13:56:26;;;;;;;;;;;26.60;99.90;;;;;;5133372;28;19926;-68
2024/01/29 13:58:53;;;;;;;;;;;26.50;99.90;;;;;;5117113;28;19918;-70
2024/01/29 14:01:20;;;;;;;;;;;26.60;99.90;;;;;;5114767;28;19924;-67
2024/01/29 14:03:46;;;;;;;;;;;26.60;99.90;;;;;;5118956;28;19943;-71
2024/01/29 14:06:13;;;;;;;;;;;26.60;99.90;;;;;;5133092;28;20307;-67
2024/01/29 14:08:43;;;;;;;;;;;26.60;99.90;;;;;;5131556;28;20400;-66
2024/01/29 14:11:09;;;;;;;;;;;26.60;99.90;;;;;;5133496;28;20363;-69
2024/01/29 14:13:36;;;;;;;;;;;26.40;99.90;;;;;;5131543;28;20388;-67
2024/01/29 14:16:03;;;;;;;;;;;26.40;99.90;;;;;;5132744;28;20363;-66